Time;durP1;ratioP1;P1;durP2;ratioP2;P2;SDS_P1;SDS_P2;PMS_P1;PMS_P2;Temp;Humidity;BMP_temperature;BMP_pressure;BME280_temperature;BME280_humidity;BME280_pressure;Samples;Min_cycle;Max_cycle;Signal;HPM_P1;HPM_P2
2023/01/03 00:00:47;;;;;;;13.10;10.52;;;13.10;96.70;;;;;;5058011;28;20548;-75
2023/01/03 00:03:18;;;;;;;17.08;10.93;;;13.10;96.70;;;;;;5046194;28;20610;-74
2023/01/03 00:05:48;;;;;;;15.75;10.23;;;13.10;96.70;;;;;;5033577;28;20539;-75
2023/01/03 00:08:16;;;;;;;14.50;10.82;;;13.10;96.70;;;;;;5053694;28;20063;-75
2023/01/03 00:10:43;;;;;;;17.63;10.50;;;13.10;96.70;;;;;;5064185;28;20115;-75
2023/01/03 00:13:11;;;;;;;14.07;10.52;;;13.20;96.70;;;;;;5061304;28;20041;-74
2023/01/03 00:15:39;;;;;;;14.70;10.80;;;13.10;96.70;;;;;;5057500;28;20082;-75
2023/01/03 00:18:07;;;;;;;17.10;10.77;;;13.10;96.70;;;;;;5053511;28;20556;-75
2023/01/03 00:20:34;;;;;;;12.95;10.13;;;13.20;96.70;;;;;;5063264;28;20052;-75
2023/01/03 00:23:04;;;;;;;13.95;9.98;;;13.10;96.70;;;;;;5039212;28;20044;-76
2023/01/03 00:25:31;;;;;;;14.07;10.43;;;13.10;96.70;;;;;;5048112;28;20094;-75
2023/01/03 00:27:59;;;;;;;14.90;10.23;;;13.10;96.70;;;;;;5055445;28;20055;-75
2023/01/03 00:30:27;;;;;;;14.18;9.77;;;13.20;96.70;;;;;;5055062;28;20086;-74
2023/01/03 00:32:55;;;;;;;17.27;9.88;;;13.20;96.70;;;;;;5047655;28;20068;-75
2023/01/03 00:35:22;;;;;;;13.32;10.10;;;13.20;96.70;;;;;;5063153;28;20040;-74
2023/01/03 00:37:50;;;;;;;12.60;9.73;;;13.20;96.70;;;;;;5063001;28;20053;-74
2023/01/03 00:40:19;;;;;;;17.25;10.80;;;13.20;96.70;;;;;;5058774;28;20049;-75
2023/01/03 00:45:34;;;;;;;13.82;10.60;;;13.20;96.70;;;;;;5063649;28;20094;-74
2023/01/03 00:48:02;;;;;;;15.05;11.00;;;13.20;96.70;;;;;;5052148;28;20064;-74
2023/01/03 00:50:30;;;;;;;12.93;10.35;;;13.20;96.70;;;;;;5052670;28;20521;-75
2023/01/03 00:52:58;;;;;;;15.43;10.05;;;13.20;96.70;;;;;;5042943;28;20044;-75
2023/01/03 00:55:27;;;;;;;15.48;10.23;;;13.20;96.70;;;;;;5062386;28;20048;-74
2023/01/03 00:57:55;;;;;;;15.18;9.75;;;13.20;96.70;;;;;;5054964;28;20059;-74
2023/01/03 01:00:22;;;;;;;13.85;9.32;;;13.20;96.70;;;;;;5062896;28;20040;-75
2023/01/03 01:02:52;;;;;;;14.05;9.95;;;13.20;96.70;;;;;;5062976;28;20393;-75
2023/01/03 01:05:20;;;;;;;12.23;9.45;;;13.20;96.70;;;;;;5062636;28;20461;-75
2023/01/03 01:07:48;;;;;;;15.35;10.30;;;13.10;96.70;;;;;;5062450;28;20045;-75
2023/01/03 01:10:18;;;;;;;16.23;10.75;;;13.10;96.70;;;;;;5062411;28;20451;-75
2023/01/03 01:12:47;;;;;;;15.20;10.13;;;13.10;96.70;;;;;;5049037;28;20044;-74
2023/01/03 01:15:16;;;;;;;17.63;10.75;;;13.00;96.70;;;;;;5046432;28;20488;-73
2023/01/03 01:17:44;;;;;;;15.63;11.40;;;13.00;96.70;;;;;;5062582;28;20040;-74
2023/01/03 01:20:12;;;;;;;16.35;10.13;;;12.90;96.70;;;;;;5054662;28;20052;-74
2023/01/03 01:22:40;;;;;;;15.60;10.85;;;12.90;96.70;;;;;;5056432;28;20143;-74
2023/01/03 01:25:08;;;;;;;13.18;10.13;;;12.90;96.70;;;;;;5063386;28;20086;-74
2023/01/03 01:27:35;;;;;;;16.42;11.00;;;12.80;96.70;;;;;;5057873;28;20041;-73
2023/01/03 01:30:06;;;;;;;13.63;10.20;;;12.80;96.70;;;;;;5049709;28;20058;-75
2023/01/03 01:32:33;;;;;;;15.68;10.60;;;12.80;96.70;;;;;;5032830;28;20453;-75
2023/01/03 01:35:01;;;;;;;14.95;10.77;;;12.90;96.70;;;;;;5061919;28;20056;-74
2023/01/03 01:37:30;;;;;;;14.45;10.38;;;12.90;96.70;;;;;;5044348;28;20147;-74
2023/01/03 01:39:58;;;;;;;15.15;9.73;;;12.80;96.70;;;;;;5062858;28;20517;-75
2023/01/03 01:45:14;;;;;;;13.63;9.88;;;12.80;96.70;;;;;;5043465;28;20049;-78
2023/01/03 01:47:48;;;;;;;14.25;10.00;;;12.80;96.70;;;;;;5048342;28;20044;-75
2023/01/03 01:50:21;;;;;;;16.00;10.65;;;12.80;96.70;;;;;;5062067;28;20052;-74
2023/01/03 01:52:54;;;;;;;15.07;10.57;;;12.80;96.70;;;;;;5047382;28;20044;-73
2023/01/03 01:55:25;;;;;;;16.52;9.95;;;12.80;96.70;;;;;;5031368;28;20441;-75
2023/01/03 01:57:53;;;;;;;16.58;10.18;;;12.80;96.70;;;;;;5044378;28;20121;-75
2023/01/03 02:00:22;;;;;;;11.20;9.23;;;12.80;96.70;;;;;;5035101;28;20065;-75
2023/01/03 02:02:52;;;;;;;12.75;9.68;;;12.90;96.70;;;;;;5057668;28;20151;-74
2023/01/03 02:05:22;;;;;;;13.82;10.13;;;12.80;96.70;;;;;;5053800;28;20071;-74
2023/01/03 02:07:51;;;;;;;13.30;10.15;;;12.80;96.70;;;;;;5056815;28;20430;-74
2023/01/03 02:10:25;;;;;;;12.85;9.30;;;12.80;96.70;;;;;;5050433;28;20056;-75
2023/01/03 02:13:05;;;;;;;14.60;9.45;;;12.80;96.70;;;;;;5059639;28;20041;-74
2023/01/03 02:16:06;;;;;;;12.48;9.98;;;12.80;96.70;;;;;;5047225;28;20049;-74
2023/01/03 02:18:45;;;;;;;15.05;10.20;;;12.90;96.70;;;;;;5048553;28;20517;-75
2023/01/03 02:21:43;;;;;;;12.60;9.68;;;12.80;96.70;;;;;;5040657;28;20036;-74
2023/01/03 02:24:55;;;;;;;11.73;8.93;;;12.80;96.70;;;;;;5051426;28;21129;-74
2023/01/03 02:28:17;;;;;;;14.65;9.60;;;12.80;96.70;;;;;;5061247;28;20140;-74
2023/01/03 02:30:50;;;;;;;12.48;8.93;;;12.80;96.70;;;;;;5037800;28;20523;-74
2023/01/03 02:33:28;;;;;;;12.38;8.85;;;12.80;96.70;;;;;;5017014;28;20084;-74
2023/01/03 02:36:04;;;;;;;13.45;9.90;;;12.80;96.70;;;;;;5028446;28;20067;-74
2023/01/03 02:38:42;;;;;;;13.73;9.05;;;12.80;96.70;;;;;;5046378;28;20490;-74
2023/01/03 02:41:20;;;;;;;11.82;8.95;;;12.90;96.70;;;;;;5061029;28;20474;-74
2023/01/03 02:43:53;;;;;;;14.10;9.43;;;12.90;96.70;;;;;;5039141;28;20052;-74
2023/01/03 02:46:29;;;;;;;14.70;9.52;;;12.90;96.70;;;;;;5049754;28;20061;-74
2023/01/03 02:49:03;;;;;;;14.07;9.68;;;12.80;96.70;;;;;;5041942;28;20803;-74
2023/01/03 02:51:35;;;;;;;14.73;9.10;;;12.90;96.70;;;;;;5077011;28;20040;-75
2023/01/03 02:54:06;;;;;;;10.48;8.32;;;12.80;96.70;;;;;;5061014;28;20121;-74
2023/01/03 02:56:39;;;;;;;12.57;8.15;;;12.90;96.70;;;;;;5058869;28;20051;-75
2023/01/03 02:59:10;;;;;;;12.55;9.13;;;12.90;96.70;;;;;;5063305;28;20072;-75
2023/01/03 03:01:49;;;;;;;11.13;8.43;;;12.90;96.70;;;;;;5079720;28;20048;-74
2023/01/03 03:04:18;;;;;;;12.75;9.07;;;12.90;96.70;;;;;;5079076;28;20078;-74
2023/01/03 03:06:55;;;;;;;14.25;8.85;;;12.90;96.70;;;;;;5076237;28;20040;-75
2023/01/03 03:09:23;;;;;;;14.07;8.80;;;12.90;96.70;;;;;;5051716;28;20110;-74
2023/01/03 03:14:44;;;;;;;12.90;8.77;;;12.90;96.70;;;;;;5060036;28;20765;-74
2023/01/03 03:17:19;;;;;;;12.57;8.63;;;12.90;96.70;;;;;;5064483;28;20060;-74
2023/01/03 03:25:34;;;;;;;15.90;9.27;;;12.90;96.70;;;;;;5046823;28;20048;-75
2023/01/03 03:30:56;;;;;;;11.30;9.05;;;12.90;96.70;;;;;;5075740;28;20128;-74
2023/01/03 03:33:29;;;;;;;14.98;9.70;;;12.80;96.70;;;;;;5074369;28;20071;-74
2023/01/03 03:36:02;;;;;;;14.27;9.00;;;12.80;96.70;;;;;;5078639;28;20047;-74
2023/01/03 03:38:34;;;;;;;12.88;9.15;;;12.80;96.70;;;;;;5069847;28;20102;-74
2023/01/03 03:46:59;;;;;;;13.57;10.07;;;12.80;96.70;;;;;;5077701;28;20051;-74
2023/01/03 03:49:38;;;;;;;13.68;9.40;;;12.80;96.70;;;;;;5051204;28;20058;-75
2023/01/03 03:52:12;;;;;;;12.32;9.43;;;12.80;96.70;;;;;;5055713;28;20055;-75
2023/01/03 03:54:44;;;;;;;14.80;9.70;;;12.80;96.70;;;;;;5058317;28;20885;-73
2023/01/03 03:57:18;;;;;;;12.13;9.20;;;12.80;96.70;;;;;;5039953;28;20118;-75
2023/01/03 03:59:52;;;;;;;13.13;8.65;;;12.80;96.70;;;;;;5053150;28;20045;-75
2023/01/03 04:02:22;;;;;;;12.77;9.32;;;12.80;96.70;;;;;;5064485;28;20067;-76
2023/01/03 04:04:55;;;;;;;12.80;8.38;;;12.80;96.70;;;;;;5063207;28;20123;-76
2023/01/03 04:07:23;;;;;;;12.90;8.93;;;12.80;96.70;;;;;;5063561;28;20040;-75
2023/01/03 04:09:52;;;;;;;12.40;8.95;;;12.80;96.70;;;;;;5033664;28;20138;-75
2023/01/03 04:12:20;;;;;;;14.63;9.32;;;12.80;96.70;;;;;;5047860;28;20048;-76
2023/01/03 04:14:47;;;;;;;12.63;8.80;;;12.90;96.70;;;;;;5058997;28;20040;-75
2023/01/03 04:17:16;;;;;;;10.30;8.63;;;12.80;96.70;;;;;;5046513;28;20052;-76
2023/01/03 04:19:44;;;;;;;12.38;9.18;;;12.80;96.70;;;;;;5044932;28;20090;-75
2023/01/03 04:22:13;;;;;;;12.38;8.90;;;12.80;96.70;;;;;;5051437;28;20537;-76
2023/01/03 04:24:41;;;;;;;11.38;8.75;;;12.80;96.70;;;;;;5055427;28;20041;-76
2023/01/03 04:27:09;;;;;;;9.27;8.25;;;12.80;96.70;;;;;;5052901;28;20036;-76
2023/01/03 04:29:37;;;;;;;14.02;8.90;;;12.80;96.70;;;;;;5063304;28;20041;-75
2023/01/03 04:32:06;;;;;;;11.73;7.90;;;12.80;96.70;;;;;;5054238;28;20042;-76
2023/01/03 04:34:35;;;;;;;10.00;7.95;;;12.80;96.70;;;;;;5058792;28;20510;-76
2023/01/03 04:37:03;;;;;;;11.80;8.95;;;12.80;96.70;;;;;;5058032;28;20425;-76
2023/01/03 04:39:32;;;;;;;10.90;8.35;;;12.80;96.70;;;;;;5052421;28;20510;-76
2023/01/03 04:44:00;;;;;;;12.85;8.88;;;12.80;96.70;;;;;;5049399;28;20059;-75
2023/01/03 04:44:48;;;;;;;14.07;9.10;;;12.80;96.70;;;;;;5063177;28;20148;-76
2023/01/03 04:47:16;;;;;;;12.55;8.07;;;12.80;96.70;;;;;;5053554;28;20579;-76
2023/01/03 04:49:45;;;;;;;12.43;8.77;;;12.90;96.70;;;;;;5035585;28;20547;-76
2023/01/03 04:52:13;;;;;;;11.77;8.40;;;12.90;96.70;;;;;;5055143;28;20048;-76
2023/01/03 04:54:43;;;;;;;12.80;9.02;;;12.90;96.70;;;;;;5053543;28;20501;-76
2023/01/03 04:57:11;;;;;;;12.13;9.20;;;12.80;96.70;;;;;;5063066;28;20072;-75
2023/01/03 04:59:39;;;;;;;11.48;8.52;;;12.90;96.70;;;;;;5057620;28;20123;-76
2023/01/03 05:02:07;;;;;;;11.90;8.57;;;12.90;96.70;;;;;;5056069;28;20056;-76
2023/01/03 05:04:35;;;;;;;10.52;8.18;;;12.90;96.70;;;;;;5062920;28;20036;-76
2023/01/03 05:07:03;;;;;;;13.07;8.60;;;12.90;96.70;;;;;;5062229;28;20053;-75
2023/01/03 05:09:31;;;;;;;15.45;8.50;;;12.90;96.70;;;;;;5057915;28;20721;-75
2023/01/03 05:12:00;;;;;;;13.43;8.60;;;12.90;96.70;;;;;;5059390;28;20110;-75
2023/01/03 05:14:28;;;;;;;12.10;8.75;;;12.90;96.70;;;;;;5039080;28;20040;-76
2023/01/03 05:16:56;;;;;;;12.88;8.60;;;12.90;96.70;;;;;;5047394;28;20049;-75
2023/01/03 05:19:24;;;;;;;14.60;8.50;;;12.90;96.70;;;;;;5049752;28;20506;-76
2023/01/03 05:27:27;;;;;;;14.25;8.90;;;13.00;96.70;;;;;;5062350;28;20048;-76
2023/01/03 05:29:55;;;;;;;10.00;8.27;;;13.00;96.70;;;;;;5050600;28;20066;-75
2023/01/03 05:32:23;;;;;;;10.25;8.15;;;13.00;96.70;;;;;;5044834;28;20072;-76
2023/01/03 05:34:51;;;;;;;16.13;8.65;;;12.90;96.70;;;;;;5048508;28;20535;-75
2023/01/03 05:37:19;;;;;;;11.52;8.05;;;12.90;96.70;;;;;;5061634;28;20040;-76
2023/01/03 05:39:47;;;;;;;12.02;8.35;;;12.90;96.70;;;;;;5056607;28;20055;-76
2023/01/03 05:42:15;;;;;;;13.13;8.05;;;13.00;96.70;;;;;;5047960;28;20048;-75
2023/01/03 05:44:44;;;;;;;16.20;8.13;;;13.00;96.70;;;;;;5057163;28;20467;-75
2023/01/03 05:47:12;;;;;;;11.05;7.85;;;12.90;96.70;;;;;;5045089;28;20041;-75
2023/01/03 05:49:40;;;;;;;12.82;8.68;;;12.90;96.70;;;;;;5062126;28;20641;-75
2023/01/03 05:52:08;;;;;;;11.50;7.72;;;12.90;96.70;;;;;;5061965;28;20051;-75
2023/01/03 05:54:35;;;;;;;14.60;9.25;;;12.90;96.70;;;;;;5062863;28;20506;-75
2023/01/03 05:57:03;;;;;;;11.02;7.68;;;12.90;96.70;;;;;;5062272;28;20548;-76
2023/01/03 05:59:31;;;;;;;12.63;8.10;;;12.90;96.70;;;;;;5047552;28;20060;-75
2023/01/03 06:02:00;;;;;;;12.60;7.57;;;12.90;96.70;;;;;;5057169;28;20326;-77
2023/01/03 06:04:28;;;;;;;12.48;7.55;;;12.90;96.70;;;;;;5062547;28;20053;-75
2023/01/03 06:06:56;;;;;;;9.88;7.28;;;12.90;96.70;;;;;;5053275;28;20090;-76
2023/01/03 06:09:24;;;;;;;9.48;7.25;;;12.90;96.70;;;;;;5055181;28;20055;-75
2023/01/03 06:11:51;;;;;;;11.38;7.38;;;12.90;96.70;;;;;;5061925;28;20045;-75
2023/01/03 06:14:19;;;;;;;8.55;7.63;;;12.80;96.70;;;;;;5048363;28;20144;-75
2023/01/03 06:19:35;;;;;;;9.27;7.33;;;12.90;96.70;;;;;;5065702;28;20493;-75
2023/01/03 06:22:03;;;;;;;12.73;7.38;;;12.80;96.70;;;;;;5065098;28;20052;-76
2023/01/03 06:24:38;;;;;;;13.02;7.43;;;12.80;96.70;;;;;;5063519;28;20147;-75
2023/01/03 06:27:06;;;;;;;12.00;8.20;;;12.80;96.70;;;;;;5065843;28;20094;-75
2023/01/03 06:29:35;;;;;;;9.68;7.13;;;12.80;96.70;;;;;;5063085;28;20044;-76
2023/01/03 06:32:03;;;;;;;12.00;7.70;;;12.80;96.70;;;;;;5056501;28;20536;-75
2023/01/03 06:34:38;;;;;;;11.48;7.53;;;12.90;96.70;;;;;;5052675;28;20099;-76
2023/01/03 06:37:06;;;;;;;11.45;8.25;;;12.90;96.70;;;;;;5062772;28;20072;-75
2023/01/03 06:39:34;;;;;;;12.80;8.10;;;12.90;96.70;;;;;;5065558;28;20048;-76
2023/01/03 06:42:38;;;;;;;10.88;7.43;;;12.90;96.70;;;;;;5057100;28;20044;-75
2023/01/03 06:53:14;;;;;;;13.13;8.60;;;12.90;96.70;;;;;;5065213;28;20050;-76
2023/01/03 06:55:44;;;;;;;15.40;9.10;;;12.90;96.70;;;;;;5065525;28;20084;-75
2023/01/03 06:58:21;;;;;;;13.18;9.13;;;12.90;96.70;;;;;;5050799;28;20075;-75
2023/01/03 07:00:49;;;;;;;15.20;9.48;;;12.90;96.70;;;;;;5064760;28;20052;-77
2023/01/03 07:03:17;;;;;;;11.57;9.05;;;12.90;96.70;;;;;;5043152;28;20047;-76
2023/01/03 07:05:47;;;;;;;13.15;9.80;;;12.90;96.70;;;;;;5052922;28;20068;-75
2023/01/03 07:08:15;;;;;;;16.02;9.70;;;12.90;96.70;;;;;;5052075;28;20086;-75
2023/01/03 07:10:43;;;;;;;16.58;10.30;;;13.00;96.70;;;;;;5036299;28;20044;-75
2023/01/03 07:15:58;;;;;;;;;;;13.00;96.70;;;;;;5066284;28;20049;-76
2023/01/03 07:18:26;;;;;;;16.65;11.02;;;13.00;96.70;;;;;;5065139;28;19996;-75
2023/01/03 07:20:56;;;;;;;17.48;11.48;;;13.00;96.70;;;;;;5047674;28;20673;-73
2023/01/03 07:23:24;;;;;;;16.90;11.48;;;13.00;96.70;;;;;;5056918;28;20650;-74
2023/01/03 07:25:54;;;;;;;14.45;9.27;;;13.00;96.70;;;;;;5057814;28;20045;-75
2023/01/03 07:28:22;;;;;;;13.13;8.85;;;13.00;96.70;;;;;;5047231;28;20052;-74
2023/01/03 07:30:51;;;;;;;11.55;8.65;;;13.10;96.70;;;;;;5046343;28;20752;-75
2023/01/03 07:33:19;;;;;;;12.48;8.82;;;13.10;96.70;;;;;;5064408;28;20043;-75
2023/01/03 07:35:47;;;;;;;13.80;7.78;;;13.10;96.70;;;;;;5062701;28;20849;-74
2023/01/03 07:38:17;;;;;;;11.82;8.00;;;13.10;96.70;;;;;;5063957;28;20052;-74
2023/01/03 07:40:45;;;;;;;13.80;7.95;;;13.20;96.70;;;;;;5064209;28;20120;-75
2023/01/03 07:45:59;;;;;;;14.73;8.15;;;13.20;96.70;;;;;;5063114;28;20583;-74
2023/01/03 07:48:27;;;;;;;12.90;7.90;;;13.30;96.70;;;;;;5062340;28;20072;-73
2023/01/03 07:50:58;;;;;;;14.65;8.13;;;13.30;96.70;;;;;;5055934;28;20139;-74
2023/01/03 07:53:29;;;;;;;14.13;9.02;;;13.40;96.70;;;;;;5063389;28;20040;-73
2023/01/03 07:56:02;;;;;;;12.57;8.82;;;13.40;96.70;;;;;;5053870;28;20465;-73
2023/01/03 07:58:37;;;;;;;13.35;8.75;;;13.50;96.70;;;;;;5060605;28;20242;-73
2023/01/03 08:01:07;;;;;;;11.80;8.60;;;13.60;96.70;;;;;;5030684;28;20517;-73
2023/01/03 08:03:36;;;;;;;11.35;8.25;;;13.60;96.70;;;;;;5063209;28;20040;-74
2023/01/03 08:06:06;;;;;;;47.38;34.72;;;13.60;96.70;;;;;;5062545;28;20040;-74
2023/01/03 08:08:36;;;;;;;17.90;12.07;;;13.70;96.70;;;;;;5061289;28;20115;-72
2023/01/03 08:13:52;;;;;;;16.60;9.45;;;13.80;96.70;;;;;;5045538;28;20436;-73
2023/01/03 08:16:20;;;;;;;12.40;9.27;;;13.80;96.70;;;;;;5049165;28;20132;-73
2023/01/03 08:18:48;;;;;;;14.63;9.60;;;13.80;96.70;;;;;;5045416;28;20127;-73
2023/01/03 08:21:16;;;;;;;13.23;9.00;;;13.90;96.70;;;;;;5042174;28;20129;-73
2023/01/03 08:23:47;;;;;;;15.23;9.18;;;13.90;96.70;;;;;;5039707;28;21470;-73
2023/01/03 08:26:16;;;;;;;13.68;8.90;;;13.90;96.70;;;;;;5020459;28;20103;-74
2023/01/03 08:28:44;;;;;;;11.55;8.65;;;14.00;96.70;;;;;;5036881;28;20101;-73
2023/01/03 08:31:17;;;;;;;13.60;8.88;;;14.00;96.70;;;;;;5042427;28;20036;-73
2023/01/03 08:33:48;;;;;;;11.65;8.00;;;14.00;96.70;;;;;;5044441;28;20105;-73
2023/01/03 08:36:16;;;;;;;13.25;8.80;;;14.00;96.70;;;;;;5060087;28;20387;-75
2023/01/03 08:38:51;;;;;;;12.70;8.60;;;14.00;96.70;;;;;;5028598;28;20384;-76
2023/01/03 08:41:23;;;;;;;13.05;8.30;;;14.00;96.70;;;;;;5043826;28;20050;-75
2023/01/03 08:43:52;;;;;;;12.23;8.30;;;14.10;96.70;;;;;;5024661;28;20052;-75
2023/01/03 08:46:20;;;;;;;11.38;8.02;;;14.10;96.70;;;;;;5040039;28;20045;-76
2023/01/03 08:48:48;;;;;;;12.93;8.55;;;14.10;96.70;;;;;;5040322;28;20052;-74
2023/01/03 08:51:16;;;;;;;9.48;6.82;;;14.10;96.70;;;;;;5043399;28;20067;-75
2023/01/03 08:53:46;;;;;;;10.75;7.32;;;14.20;96.70;;;;;;5039985;28;20502;-74
2023/01/03 08:56:18;;;;;;;10.48;7.47;;;14.20;96.70;;;;;;5055350;28;20043;-74
2023/01/03 08:58:46;;;;;;;10.98;7.30;;;14.20;96.70;;;;;;5061523;28;20040;-74
2023/01/03 09:01:14;;;;;;;12.48;7.40;;;14.20;96.70;;;;;;5047322;28;20040;-74
2023/01/03 09:03:42;;;;;;;9.10;7.53;;;14.20;96.70;;;;;;5045641;28;20143;-74
2023/01/03 09:06:10;;;;;;;12.68;8.05;;;14.20;96.70;;;;;;5059709;28;20040;-75
2023/01/03 09:08:38;;;;;;;13.38;7.60;;;14.20;96.70;;;;;;5061618;28;20041;-75
2023/01/03 09:11:09;;;;;;;11.77;7.35;;;14.20;96.70;;;;;;5048249;28;20040;-75
2023/01/03 09:13:37;;;;;;;14.80;8.48;;;14.20;96.70;;;;;;5061970;28;20055;-74
2023/01/03 09:16:08;;;;;;;14.52;8.75;;;14.20;96.70;;;;;;5062301;28;20044;-75
2023/01/03 09:18:37;;;;;;;14.50;8.65;;;14.20;96.70;;;;;;5045162;28;20049;-75
2023/01/03 09:21:07;;;;;;;14.50;8.88;;;14.30;96.70;;;;;;5043498;28;20681;-76
2023/01/03 09:23:35;;;;;;;12.50;8.75;;;14.30;96.70;;;;;;5061115;28;20032;-74
2023/01/03 09:26:04;;;;;;;12.88;8.38;;;14.40;96.70;;;;;;5044448;28;20756;-74
2023/01/03 09:28:33;;;;;;;16.05;8.27;;;14.40;96.70;;;;;;5047957;28;20078;-72
2023/01/03 09:31:01;;;;;;;15.02;9.90;;;14.50;96.70;;;;;;5046684;28;20045;-71
2023/01/03 09:33:29;;;;;;;41.05;30.33;;;14.50;96.70;;;;;;5057558;28;20059;-71
2023/01/03 09:35:58;;;;;;;15.98;12.15;;;14.50;96.70;;;;;;5043709;28;20390;-76
2023/01/03 09:38:26;;;;;;;17.25;11.55;;;14.50;96.70;;;;;;5047932;28;20102;-75
2023/01/03 09:41:00;;;;;;;18.02;11.95;;;14.50;96.70;;;;;;5059788;28;20597;-75
2023/01/03 09:43:36;;;;;;;14.85;9.07;;;14.50;96.70;;;;;;5058547;28;20047;-76
2023/01/03 09:46:04;;;;;;;15.65;10.60;;;14.50;96.70;;;;;;5062675;28;20431;-75
2023/01/03 09:48:36;;;;;;;13.57;9.75;;;14.50;96.70;;;;;;5064181;28;20110;-75
2023/01/03 10:03:42;;;;;;;12.43;8.48;;;14.50;96.70;;;;;;5048420;28;20057;-74
2023/01/03 10:05:51;;;;;;;18.98;12.60;;;14.50;96.70;;;;;;5055063;28;20117;-73
2023/01/03 10:08:28;;;;;;;19.85;11.85;;;14.60;96.70;;;;;;5051081;28;20053;-76
2023/01/03 10:11:03;;;;;;;29.95;21.83;;;14.70;96.70;;;;;;5034278;28;20044;-73
2023/01/03 10:13:47;;;;;;;48.67;36.17;;;14.70;96.70;;;;;;5064347;28;20052;-72
2023/01/03 10:16:28;;;;;;;18.65;12.82;;;14.80;96.70;;;;;;5047928;28;20493;-76
2023/01/03 10:19:19;;;;;;;22.02;13.13;;;14.80;96.70;;;;;;5048393;28;20056;-75
2023/01/03 10:21:55;;;;;;;19.23;11.05;;;14.80;96.70;;;;;;5044442;28;20051;-75
2023/01/03 10:24:28;;;;;;;14.75;10.93;;;14.80;96.70;;;;;;5063652;28;20472;-75
2023/01/03 10:27:02;;;;;;;18.00;11.20;;;14.90;96.70;;;;;;5064914;28;20500;-74
2023/01/03 10:29:31;;;;;;;13.40;9.75;;;14.90;96.70;;;;;;5064948;28;20051;-74
2023/01/03 10:32:27;;;;;;;15.27;10.02;;;15.00;96.70;;;;;;5065238;28;20049;-73
2023/01/03 10:35:15;;;;;;;16.58;9.30;;;15.00;96.70;;;;;;5053661;28;20502;-73
2023/01/03 10:37:44;;;;;;;13.02;9.15;;;15.10;96.70;;;;;;5064953;28;20056;-74
2023/01/03 10:40:13;;;;;;;17.35;12.52;;;15.20;96.70;;;;;;5062534;28;20127;-74
2023/01/03 10:42:42;;;;;;;15.93;10.38;;;15.20;96.70;;;;;;5057173;28;20080;-75
2023/01/03 10:45:14;;;;;;;16.02;10.60;;;15.30;96.70;;;;;;5057427;28;20444;-74
2023/01/03 10:47:44;;;;;;;13.43;9.93;;;15.30;96.70;;;;;;5063807;28;20052;-74
2023/01/03 10:50:21;;;;;;;19.83;9.60;;;15.40;96.70;;;;;;5065431;28;20052;-74
2023/01/03 10:52:55;;;;;;;13.80;9.07;;;15.40;96.70;;;;;;5064823;28;20055;-74
2023/01/03 10:55:25;;;;;;;12.77;9.38;;;15.30;96.70;;;;;;5057610;28;20547;-74
2023/01/03 10:58:01;;;;;;;19.77;10.45;;;15.40;96.70;;;;;;5065369;28;20049;-74
2023/01/03 11:00:31;;;;;;;14.13;9.95;;;15.40;96.70;;;;;;5064731;28;20044;-74
2023/01/03 11:03:13;;;;;;;16.67;9.45;;;15.50;96.70;;;;;;5045147;28;20541;-74
2023/01/03 11:05:44;;;;;;;16.85;9.23;;;15.50;96.70;;;;;;5064749;28;20049;-74
2023/01/03 11:08:21;;;;;;;13.57;8.95;;;15.60;96.70;;;;;;5064832;28;20068;-74
2023/01/03 11:10:55;;;;;;;13.25;9.30;;;15.60;96.70;;;;;;5064890;28;20060;-75
2023/01/03 11:13:28;;;;;;;12.65;8.85;;;15.60;96.70;;;;;;5060975;28;20055;-74
2023/01/03 11:15:58;;;;;;;15.60;8.68;;;15.60;96.70;;;;;;5062121;28;21243;-74
2023/01/03 11:18:28;;;;;;;12.10;8.65;;;15.70;96.70;;;;;;5048037;28;20048;-74
2023/01/03 11:21:06;;;;;;;15.80;9.48;;;15.60;96.70;;;;;;5064842;28;20573;-74
2023/01/03 11:23:56;;;;;;;14.77;8.70;;;15.60;96.70;;;;;;5046536;28;20044;-74
2023/01/03 11:26:39;;;;;;;14.77;8.90;;;15.60;96.70;;;;;;5065706;28;20048;-74
2023/01/03 11:29:29;;;;;;;12.68;8.85;;;15.60;96.70;;;;;;5064986;28;20055;-73
2023/01/03 11:32:09;;;;;;;16.48;9.23;;;15.60;96.70;;;;;;5040146;28;20055;-75
2023/01/03 11:34:55;;;;;;;12.02;8.23;;;15.60;96.70;;;;;;5062874;28;20075;-74
2023/01/03 11:37:55;;;;;;;14.50;9.20;;;15.60;96.70;;;;;;5040714;28;20056;-74
2023/01/03 11:40:32;;;;;;;17.45;9.25;;;15.60;96.70;;;;;;5065124;28;20530;-74
2023/01/03 11:43:17;;;;;;;14.52;9.57;;;15.60;96.70;;;;;;5046401;28;20036;-74
2023/01/03 11:46:05;;;;;;;12.55;8.43;;;15.60;96.70;;;;;;5049150;28;20193;-74
2023/01/03 11:48:51;;;;;;;11.52;8.18;;;15.70;96.70;;;;;;5043814;28;20048;-74
2023/01/03 11:51:30;;;;;;;11.00;8.45;;;15.70;96.70;;;;;;5064216;28;20045;-74
2023/01/03 11:54:04;;;;;;;13.05;8.60;;;15.70;96.70;;;;;;5047588;28;20143;-74
2023/01/03 11:56:37;;;;;;;15.35;8.43;;;15.70;96.70;;;;;;5064366;28;20039;-74
2023/01/03 11:59:44;;;;;;;12.30;8.95;;;15.70;96.70;;;;;;5063831;28;20469;-74
2023/01/03 12:02:45;;;;;;;13.45;8.23;;;15.70;96.70;;;;;;5064161;28;20044;-75
2023/01/03 12:05:44;;;;;;;14.88;8.27;;;15.70;96.70;;;;;;5043113;28;20052;-74
2023/01/03 12:08:31;;;;;;;;;;;15.70;96.70;;;;;;5060124;28;20044;-74
2023/01/03 12:11:09;;;;;;;11.95;7.72;;;15.70;96.70;;;;;;5063633;28;19924;-75
2023/01/03 12:13:44;;;;;;;10.73;8.05;;;15.70;96.70;;;;;;5063836;28;20055;-74
2023/01/03 12:16:19;;;;;;;12.32;9.45;;;15.70;96.70;;;;;;5054992;28;20526;-74
2023/01/03 12:18:54;;;;;;;15.13;8.93;;;15.70;96.70;;;;;;5049460;28;20559;-74
2023/01/03 12:21:35;;;;;;;13.77;8.23;;;15.80;96.70;;;;;;5060669;28;20041;-74
2023/01/03 12:24:14;;;;;;;13.52;9.25;;;15.90;96.70;;;;;;5052455;28;20600;-74
2023/01/03 12:26:47;;;;;;;15.30;8.82;;;15.90;96.70;;;;;;5052557;28;20097;-75
2023/01/03 12:29:19;;;;;;;12.43;8.45;;;15.90;96.70;;;;;;5063179;28;20045;-74
2023/01/03 12:31:52;;;;;;;13.63;9.45;;;16.00;96.70;;;;;;5038523;28;20059;-74
2023/01/03 12:34:26;;;;;;;16.05;8.90;;;16.00;96.70;;;;;;5063490;28;20040;-74
2023/01/03 12:37:03;;;;;;;12.98;8.65;;;16.10;96.70;;;;;;5056801;28;20072;-75
2023/01/03 12:39:41;;;;;;;12.95;8.40;;;16.20;96.70;;;;;;5053222;28;20156;-74
2023/01/03 12:42:19;;;;;;;16.98;10.07;;;16.20;96.70;;;;;;5063613;28;20051;-73
2023/01/03 12:44:54;;;;;;;14.75;9.80;;;16.20;96.70;;;;;;5045853;28;20040;-74
2023/01/03 12:47:28;;;;;;;10.95;8.00;;;16.20;96.70;;;;;;5060251;28;20513;-74
2023/01/03 12:50:02;;;;;;;14.20;9.20;;;16.30;96.70;;;;;;5058243;28;20137;-74
2023/01/03 12:52:32;;;;;;;14.45;9.10;;;16.30;96.70;;;;;;5057638;28;20123;-74
2023/01/03 12:55:07;;;;;;;11.48;8.05;;;16.30;96.70;;;;;;5046246;28;20462;-74
2023/01/03 12:58:04;;;;;;;13.30;9.30;;;16.30;96.70;;;;;;5062579;28;20094;-75
2023/01/03 13:00:51;;;;;;;16.90;10.23;;;16.30;96.70;;;;;;5040601;28;20044;-74
2023/01/03 13:03:24;;;;;;;14.10;9.43;;;16.30;96.70;;;;;;5062155;28;20560;-74
2023/01/03 13:05:57;;;;;;;15.63;8.43;;;16.30;96.70;;;;;;5053264;28;20058;-74
2023/01/03 13:08:33;;;;;;;13.40;8.90;;;16.30;96.70;;;;;;5062139;28;20049;-74
2023/01/03 13:11:05;;;;;;;14.77;8.23;;;16.30;96.70;;;;;;5054135;28;20771;-74
2023/01/03 13:13:34;;;;;;;12.18;7.63;;;16.30;96.70;;;;;;5062298;28;20449;-74
2023/01/03 13:16:40;;;;;;;11.20;7.97;;;16.30;96.70;;;;;;5061200;28;20098;-74
2023/01/03 13:19:45;;;;;;;10.52;8.20;;;16.40;96.70;;;;;;5049394;28;20654;-74
2023/01/03 13:22:44;;;;;;;11.80;8.05;;;16.40;96.70;;;;;;5049414;28;20088;-74
2023/01/03 13:25:42;;;;;;;13.32;7.57;;;16.30;96.70;;;;;;5056209;28;20040;-75
2023/01/03 13:28:32;;;;;;;11.93;8.18;;;16.40;96.70;;;;;;5062800;28;20052;-74
2023/01/03 13:31:35;;;;;;;11.63;8.52;;;16.40;96.70;;;;;;5045109;28;20050;-74
2023/01/03 13:34:32;;;;;;;11.25;7.68;;;16.50;96.70;;;;;;5051829;28;20431;-73
2023/01/03 13:37:16;;;;;;;11.77;7.47;;;16.50;96.70;;;;;;5046337;28;20429;-73
2023/01/03 13:40:01;;;;;;;13.18;8.70;;;16.50;96.70;;;;;;5054192;28;20057;-74
2023/01/03 13:42:34;;;;;;;14.75;7.80;;;16.50;96.70;;;;;;5050743;28;20041;-73
2023/01/03 13:45:43;;;;;;;11.18;8.50;;;16.50;96.70;;;;;;5042438;28;20048;-74
2023/01/03 13:48:20;;;;;;;12.13;7.65;;;16.50;96.70;;;;;;5057492;28;20549;-74
2023/01/03 13:51:45;;;;;;;10.55;7.20;;;16.50;96.70;;;;;;5062406;28;20056;-73
2023/01/03 13:54:39;;;;;;;12.65;8.00;;;16.50;96.70;;;;;;5062005;28;20123;-75
2023/01/03 13:57:30;;;;;;;13.48;7.88;;;16.50;96.70;;;;;;5033738;28;20078;-73
2023/01/03 14:00:00;;;;;;;12.15;7.80;;;16.50;96.70;;;;;;5059808;28;20060;-73
2023/01/03 14:03:30;;;;;;;10.35;7.53;;;16.40;96.70;;;;;;5056277;28;20102;-74
2023/01/03 14:06:52;;;;;;;14.13;7.93;;;16.40;96.70;;;;;;5019920;28;20716;-74
2023/01/03 14:09:46;;;;;;;9.95;7.68;;;16.40;96.70;;;;;;5002680;28;21615;-74